createdAt,value
2019-03-01T00:00:17.768Z,4.62
2019-03-01T00:01:21.929Z,4.62
2019-03-01T00:02:26.142Z,4.62
2019-03-01T00:03:30.219Z,4.63
2019-03-01T00:04:34.392Z,4.64
2019-03-01T00:05:38.648Z,4.63
2019-03-01T00:06:42.752Z,4.64
2019-03-01T00:07:47.042Z,4.65
2019-03-01T00:08:51.260Z,4.66
2019-03-01T00:09:55.452Z,4.67
2019-03-01T00:10:59.674Z,4.66
2019-03-01T00:12:03.871Z,4.66
2019-03-01T00:13:08.133Z,4.62
2019-03-01T00:14:12.200Z,4.56
2019-03-01T00:15:16.390Z,4.48
2019-03-01T00:16:20.650Z,4.40
2019-03-01T00:17:24.801Z,4.33
2019-03-01T00:18:28.951Z,4.26
2019-03-01T00:19:33.214Z,4.17
2019-03-01T00:20:37.403Z,4.10
2019-03-01T00:21:41.588Z,4.05
2019-03-01T00:22:45.891Z,4.03
2019-03-01T00:23:49.906Z,4.01
2019-03-01T00:24:54.089Z,4.00
2019-03-01T00:25:58.366Z,3.98
2019-03-01T00:27:02.450Z,3.97
2019-03-01T00:28:06.704Z,3.97
2019-03-01T00:29:10.922Z,3.97
2019-03-01T00:30:15.131Z,4.00
2019-03-01T00:31:19.226Z,4.02
2019-03-01T00:32:23.488Z,4.05
2019-03-01T00:33:27.741Z,4.08
2019-03-01T00:34:31.793Z,4.10
2019-03-01T00:35:35.975Z,4.11
2019-03-01T00:36:40.143Z,4.13
2019-03-01T00:37:44.287Z,4.15
2019-03-01T00:38:48.525Z,4.17
2019-03-01T00:39:52.717Z,4.19
2019-03-01T00:40:56.927Z,4.21
2019-03-01T00:42:00.994Z,4.23
2019-03-01T00:43:05.192Z,4.24
2019-03-01T00:44:09.370Z,4.24
2019-03-01T00:45:13.605Z,4.23
2019-03-01T00:46:17.797Z,4.23
2019-03-01T00:47:22.010Z,4.22
2019-03-01T00:48:26.135Z,4.22
2019-03-01T00:49:30.389Z,4.22
2019-03-01T00:50:34.479Z,4.23
2019-03-01T00:51:38.653Z,4.23
2019-03-01T00:52:42.812Z,4.23
2019-03-01T00:53:47.110Z,4.23
2019-03-01T00:54:51.312Z,4.22
2019-03-01T00:55:55.415Z,4.21
2019-03-01T00:56:59.606Z,4.19
2019-03-01T00:58:03.861Z,4.19
2019-03-01T00:59:08.091Z,4.18
2019-03-01T01:00:12.310Z,4.17
2019-03-01T01:01:19.400Z,4.15
2019-03-01T01:02:22.572Z,4.11
2019-03-01T01:03:26.711Z,4.05
2019-03-01T01:04:30.850Z,3.99
2019-03-01T01:05:35.045Z,3.93
2019-03-01T01:06:39.389Z,3.85
2019-03-01T01:07:43.451Z,3.74
2019-03-01T01:08:47.626Z,3.64
2019-03-01T01:09:51.837Z,3.55
2019-03-01T01:10:56.066Z,3.49
2019-03-01T01:12:00.240Z,3.44
2019-03-01T01:13:04.422Z,3.41
2019-03-01T01:14:08.529Z,3.42
2019-03-01T01:15:12.760Z,3.44
2019-03-01T01:16:16.934Z,3.46
2019-03-01T01:17:21.154Z,3.48
2019-03-01T01:18:25.259Z,3.50
2019-03-01T01:19:29.361Z,3.52
2019-03-01T01:20:33.488Z,3.55
2019-03-01T01:21:37.575Z,3.58
2019-03-01T01:22:41.790Z,3.61
2019-03-01T01:23:45.957Z,3.63
2019-03-01T01:24:50.260Z,3.64
2019-03-01T01:25:54.352Z,3.65
2019-03-01T01:26:58.507Z,3.65
2019-03-01T01:28:02.660Z,3.65
2019-03-01T01:29:06.739Z,3.66
2019-03-01T01:30:11.057Z,3.66
2019-03-01T01:31:15.263Z,3.65
2019-03-01T01:32:19.372Z,3.65
2019-03-01T01:33:23.647Z,3.65
2019-03-01T01:34:27.714Z,3.67
2019-03-01T01:35:31.879Z,3.67
2019-03-01T01:36:36.110Z,3.69
2019-03-01T01:37:40.225Z,3.70
2019-03-01T01:38:44.470Z,3.72
2019-03-01T01:39:48.696Z,3.76
2019-03-01T01:40:52.770Z,3.78
2019-03-01T01:41:57.037Z,3.80
2019-03-01T01:43:01.123Z,3.82
2019-03-01T01:44:05.355Z,3.84
2019-03-01T01:45:09.454Z,3.86
2019-03-01T01:46:13.681Z,3.88
2019-03-01T01:47:17.870Z,3.91
2019-03-01T01:48:22.074Z,3.92
2019-03-01T01:49:26.280Z,3.93
2019-03-01T01:50:30.508Z,3.94
2019-03-01T01:51:34.613Z,3.94
2019-03-01T01:52:38.799Z,3.93
2019-03-01T01:53:42.940Z,3.92
2019-03-01T01:54:47.124Z,3.90
2019-03-01T01:55:51.386Z,3.87
2019-03-01T01:56:55.638Z,3.85
2019-03-01T01:57:59.797Z,3.86
2019-03-01T01:59:03.896Z,3.86
2019-03-01T02:00:08.249Z,3.85
2019-03-01T02:01:12.571Z,3.83
2019-03-01T02:02:16.698Z,3.82
2019-03-01T02:03:20.890Z,3.82
2019-03-01T02:04:25.114Z,3.83
2019-03-01T02:05:29.189Z,3.83
2019-03-01T02:06:33.331Z,3.83
2019-03-01T02:07:37.594Z,3.84
2019-03-01T02:08:41.771Z,3.85
2019-03-01T02:09:45.898Z,3.86
2019-03-01T02:10:50.077Z,3.87
2019-03-01T02:11:54.349Z,3.89
2019-03-01T02:12:58.444Z,3.89
2019-03-01T02:14:02.683Z,3.89
2019-03-01T02:15:06.774Z,3.90
2019-03-01T02:16:11.029Z,3.91
2019-03-01T02:17:15.115Z,3.90
2019-03-01T02:18:19.278Z,3.87
2019-03-01T02:19:23.448Z,3.85
2019-03-01T02:20:27.594Z,3.82
2019-03-01T02:21:31.784Z,3.77
2019-03-01T02:22:35.992Z,3.71
2019-03-01T02:23:40.255Z,3.60
2019-03-01T02:24:44.344Z,3.47
2019-03-01T02:25:48.485Z,3.37
2019-03-01T02:26:52.728Z,3.29
2019-03-01T02:27:56.919Z,3.22
2019-03-01T02:29:01.164Z,3.17
2019-03-01T02:30:05.196Z,3.13
2019-03-01T02:31:09.477Z,3.10
2019-03-01T02:32:13.645Z,3.06
2019-03-01T02:33:17.819Z,3.02
2019-03-01T02:34:21.998Z,3.00
2019-03-01T02:35:26.189Z,3.02
2019-03-01T02:36:30.318Z,3.07
2019-03-01T02:37:34.458Z,3.14
2019-03-01T02:38:38.715Z,3.22
2019-03-01T02:39:42.940Z,3.30
2019-03-01T02:40:47.181Z,3.38
2019-03-01T02:41:51.371Z,3.42
2019-03-01T02:42:55.577Z,3.44
2019-03-01T02:43:59.686Z,3.46
2019-03-01T02:45:03.954Z,3.49
2019-03-01T02:46:08.143Z,3.54
2019-03-01T02:47:12.340Z,3.61
2019-03-01T02:48:16.542Z,3.67
2019-03-01T02:49:20.664Z,3.72
2019-03-01T02:50:24.947Z,3.78
2019-03-01T02:51:29.095Z,3.84
2019-03-01T02:52:33.211Z,3.91
2019-03-01T02:53:37.391Z,3.98
2019-03-01T02:54:41.592Z,4.04
2019-03-01T02:55:45.832Z,4.07
2019-03-01T02:56:49.942Z,4.12
2019-03-01T02:57:54.107Z,4.16
2019-03-01T02:58:58.290Z,4.19
2019-03-01T03:00:02.433Z,4.23
2019-03-01T03:01:06.706Z,4.26
2019-03-01T03:02:10.899Z,4.30
2019-03-01T03:03:15.027Z,4.32
2019-03-01T03:04:19.292Z,4.34
2019-03-01T03:05:23.495Z,4.37
2019-03-01T03:06:27.614Z,4.39
2019-03-01T03:07:31.860Z,4.41
2019-03-01T03:08:35.970Z,4.41
2019-03-01T03:09:40.253Z,4.42
2019-03-01T03:10:44.354Z,4.43
2019-03-01T03:11:48.628Z,4.42
2019-03-01T03:12:52.655Z,4.41
2019-03-01T03:13:56.831Z,4.39
2019-03-01T03:15:00.990Z,4.38
2019-03-01T03:16:05.228Z,4.37
2019-03-01T03:17:09.324Z,4.38
2019-03-01T03:18:13.475Z,4.38
2019-03-01T03:19:17.722Z,4.40
2019-03-01T03:20:21.820Z,4.41
2019-03-01T03:21:25.876Z,4.38
2019-03-01T03:22:30.082Z,4.32
2019-03-01T03:23:34.263Z,4.25
2019-03-01T03:24:38.431Z,4.17
2019-03-01T03:25:42.571Z,4.10
2019-03-01T03:26:48.616Z,4.06
2019-03-01T03:27:50.939Z,4.02
2019-03-01T03:28:55.074Z,4.01
2019-03-01T03:29:59.247Z,4.03
2019-03-01T03:31:03.504Z,4.07
2019-03-01T03:32:07.758Z,4.10
2019-03-01T03:33:11.987Z,4.11
2019-03-01T03:34:16.117Z,4.09
2019-03-01T03:35:20.220Z,4.08
2019-03-01T03:36:24.461Z,4.05
2019-03-01T03:37:28.703Z,4.03
2019-03-01T03:38:32.874Z,4.03
2019-03-01T03:39:36.957Z,4.03
2019-03-01T03:40:41.120Z,4.05
2019-03-01T03:41:45.321Z,4.10
2019-03-01T03:42:49.499Z,4.16
2019-03-01T03:43:53.761Z,4.22
2019-03-01T03:44:57.893Z,4.28
2019-03-01T03:46:02.197Z,4.33
2019-03-01T03:47:06.490Z,4.38
2019-03-01T03:48:10.651Z,4.42
2019-03-01T03:49:14.823Z,4.43
2019-03-01T03:50:18.940Z,4.42
2019-03-01T03:51:23.182Z,4.39
2019-03-01T03:52:27.393Z,4.38
2019-03-01T03:53:31.513Z,4.35
2019-03-01T03:54:35.791Z,4.31
2019-03-01T03:55:39.886Z,4.28
2019-03-01T03:56:44.171Z,4.25
2019-03-01T03:57:48.379Z,4.23
2019-03-01T03:58:52.471Z,4.21
2019-03-01T03:59:56.695Z,4.19
2019-03-01T04:01:00.779Z,4.19
2019-03-01T04:02:04.967Z,4.20
2019-03-01T04:03:09.225Z,4.21
2019-03-01T04:04:13.307Z,4.22
2019-03-01T04:05:17.499Z,4.25
2019-03-01T04:06:21.633Z,4.28
2019-03-01T04:07:25.936Z,4.32
2019-03-01T04:08:30.162Z,4.36
2019-03-01T04:09:34.352Z,4.40
2019-03-01T04:10:38.446Z,4.45
2019-03-01T04:11:42.599Z,4.50
2019-03-01T04:12:46.760Z,4.55
2019-03-01T04:13:51.029Z,4.60
2019-03-01T04:14:55.167Z,4.64
2019-03-01T04:15:59.465Z,4.68
2019-03-01T04:17:03.617Z,4.70
2019-03-01T04:18:07.766Z,4.69
2019-03-01T04:19:12.026Z,4.67
2019-03-01T04:20:16.144Z,4.66
2019-03-01T04:21:20.317Z,4.64
2019-03-01T04:22:24.473Z,4.63
2019-03-01T04:23:28.671Z,4.62
2019-03-01T04:24:32.870Z,4.63
2019-03-01T04:25:36.993Z,4.66
2019-03-01T04:26:41.244Z,4.67
2019-03-01T04:27:45.475Z,4.69
2019-03-01T04:28:49.617Z,4.71
2019-03-01T04:29:53.849Z,4.71
2019-03-01T04:30:57.981Z,4.74
2019-03-01T04:32:02.226Z,4.77
2019-03-01T04:33:06.470Z,4.78
2019-03-01T04:34:10.574Z,4.76
2019-03-01T04:35:14.850Z,4.74
2019-03-01T04:36:18.916Z,4.73
2019-03-01T04:37:23.159Z,4.73
2019-03-01T04:38:27.256Z,4.74
2019-03-01T04:39:31.465Z,4.75
2019-03-01T04:40:35.663Z,4.77
2019-03-01T04:41:39.882Z,4.80
2019-03-01T04:42:44.077Z,4.84
2019-03-01T04:43:48.249Z,4.86
2019-03-01T04:44:52.494Z,4.89
2019-03-01T04:45:56.738Z,4.92
2019-03-01T04:47:00.899Z,4.95
2019-03-01T04:48:05.062Z,4.96
2019-03-01T04:49:09.225Z,4.98
2019-03-01T04:50:13.499Z,4.98
2019-03-01T04:51:17.600Z,4.99
2019-03-01T04:52:21.792Z,5.00
2019-03-01T04:53:26.046Z,4.99
2019-03-01T04:54:30.229Z,4.96
2019-03-01T04:55:34.333Z,4.93
2019-03-01T04:56:38.639Z,4.90
2019-03-01T04:57:42.870Z,4.85
2019-03-01T04:58:47.067Z,4.82
2019-03-01T04:59:51.257Z,4.81
2019-03-01T05:00:55.432Z,4.81
2019-03-01T05:01:59.547Z,4.84
2019-03-01T05:03:03.745Z,4.87
2019-03-01T05:04:08.007Z,4.90
2019-03-01T05:05:12.183Z,4.91
2019-03-01T05:06:16.352Z,4.89
2019-03-01T05:07:20.572Z,4.86
2019-03-01T05:08:24.766Z,4.83
2019-03-01T05:09:28.969Z,4.82
2019-03-01T05:10:33.162Z,4.81
2019-03-01T05:11:37.367Z,4.82
2019-03-01T05:12:41.482Z,4.84
2019-03-01T05:13:45.824Z,4.86
2019-03-01T05:14:49.894Z,4.90
2019-03-01T05:15:54.085Z,4.92
2019-03-01T05:16:58.331Z,4.92
2019-03-01T05:18:02.527Z,4.91
2019-03-01T05:19:06.679Z,4.91
2019-03-01T05:20:10.953Z,4.92
2019-03-01T05:21:15.186Z,4.94
2019-03-01T05:22:19.267Z,4.96
2019-03-01T05:23:23.545Z,4.98
2019-03-01T05:24:27.798Z,5.01
2019-03-01T05:25:31.998Z,5.03
2019-03-01T05:26:36.187Z,5.05
2019-03-01T05:27:40.281Z,5.07
2019-03-01T05:28:44.552Z,5.10
2019-03-01T05:29:48.770Z,5.13
2019-03-01T05:30:52.996Z,5.15
2019-03-01T05:31:57.202Z,5.19
2019-03-01T05:33:08.434Z,5.21
2019-03-01T05:34:11.146Z,5.22
2019-03-01T05:35:15.330Z,5.20
2019-03-01T05:36:19.535Z,5.17
2019-03-01T05:37:23.753Z,5.14
2019-03-01T05:38:27.943Z,5.14
2019-03-01T05:39:32.061Z,5.14
2019-03-01T05:40:36.347Z,5.16
2019-03-01T05:41:40.460Z,5.19
2019-03-01T05:42:44.704Z,5.21
2019-03-01T05:43:48.798Z,5.22
2019-03-01T05:44:52.981Z,5.20
2019-03-01T05:45:57.137Z,5.18
2019-03-01T05:47:01.406Z,5.16
2019-03-01T05:48:05.609Z,5.15
2019-03-01T05:49:09.842Z,5.12
2019-03-01T05:50:14.066Z,5.08
2019-03-01T05:51:18.126Z,5.05
2019-03-01T05:52:22.399Z,5.01
2019-03-01T05:53:26.608Z,4.96
2019-03-01T05:54:30.848Z,4.92
2019-03-01T05:55:35.065Z,4.89
2019-03-01T05:56:39.169Z,4.87
2019-03-01T05:57:43.447Z,4.85
2019-03-01T05:58:47.542Z,4.84
2019-03-01T05:59:51.857Z,4.82
2019-03-01T06:00:56.053Z,4.81
2019-03-01T06:02:00.272Z,4.81
2019-03-01T06:03:04.347Z,4.80
2019-03-01T06:04:08.497Z,4.81
2019-03-01T06:05:12.781Z,4.81
2019-03-01T06:06:16.959Z,4.82
2019-03-01T06:07:21.185Z,4.84
2019-03-01T06:08:25.329Z,4.87
2019-03-01T06:09:29.612Z,4.90
2019-03-01T06:10:33.842Z,4.94
2019-03-01T06:11:38.011Z,4.98
2019-03-01T06:12:42.365Z,5.02
2019-03-01T06:13:46.473Z,5.05
2019-03-01T06:14:50.692Z,5.06
2019-03-01T06:15:54.919Z,5.07
2019-03-01T06:16:59.275Z,5.08
2019-03-01T06:18:03.387Z,5.10
2019-03-01T06:19:07.514Z,5.13
2019-03-01T06:20:11.719Z,5.16
2019-03-01T06:21:15.962Z,5.19
2019-03-01T06:22:20.221Z,5.19
2019-03-01T06:23:24.322Z,5.16
2019-03-01T06:24:28.570Z,5.16
2019-03-01T06:25:32.740Z,5.17
2019-03-01T06:26:36.905Z,5.16
2019-03-01T06:27:41.203Z,5.17
2019-03-01T06:28:45.352Z,5.18
2019-03-01T06:29:49.593Z,5.18
2019-03-01T06:30:53.799Z,5.18
2019-03-01T06:31:57.921Z,5.18
2019-03-01T06:33:02.166Z,5.20
2019-03-01T06:34:06.275Z,5.22
2019-03-01T06:35:10.546Z,5.23
2019-03-01T06:36:14.772Z,5.25
2019-03-01T06:37:18.977Z,5.26
2019-03-01T06:38:23.131Z,5.26
2019-03-01T06:39:27.381Z,5.24
2019-03-01T06:40:31.616Z,5.22
2019-03-01T06:41:35.819Z,5.19
2019-03-01T06:42:40.012Z,5.14
2019-03-01T06:43:44.214Z,5.12
2019-03-01T06:44:48.337Z,5.09
2019-03-01T06:45:52.644Z,5.07
2019-03-01T06:46:56.828Z,5.06
2019-03-01T06:48:01.087Z,5.06
2019-03-01T06:49:05.309Z,5.07
2019-03-01T06:50:09.499Z,5.09
2019-03-01T06:51:13.645Z,5.12
2019-03-01T06:52:17.889Z,5.15
2019-03-01T06:53:22.132Z,5.15
2019-03-01T06:54:26.378Z,5.14
2019-03-01T06:55:30.584Z,5.12
2019-03-01T06:56:34.807Z,5.08
2019-03-01T06:57:39.016Z,5.04
2019-03-01T06:58:43.242Z,5.00
2019-03-01T06:59:47.413Z,4.97
2019-03-01T07:00:51.678Z,4.95
2019-03-01T07:01:55.866Z,4.94
2019-03-01T07:02:59.996Z,4.97
2019-03-01T07:04:04.244Z,5.01
2019-03-01T07:05:08.464Z,5.06
2019-03-01T07:06:12.734Z,5.11
2019-03-01T07:07:16.914Z,5.16
2019-03-01T07:08:21.037Z,5.21
2019-03-01T07:09:25.278Z,5.26
2019-03-01T07:10:29.513Z,5.31
2019-03-01T07:11:33.784Z,5.35
2019-03-01T07:12:37.996Z,5.39
2019-03-01T07:13:42.230Z,5.41
2019-03-01T07:14:46.438Z,5.41
2019-03-01T07:15:50.556Z,5.42
2019-03-01T07:16:54.893Z,5.44
2019-03-01T07:17:59.103Z,5.48
2019-03-01T07:19:03.360Z,5.49
2019-03-01T07:20:08.666Z,5.48
2019-03-01T07:21:11.827Z,5.47
2019-03-01T07:22:15.935Z,5.43
2019-03-01T07:23:20.184Z,5.40
2019-03-01T07:24:24.338Z,5.37
2019-03-01T07:25:28.573Z,5.34
2019-03-01T07:26:32.829Z,5.31
2019-03-01T07:27:36.987Z,5.29
2019-03-01T07:28:41.208Z,5.27
2019-03-01T07:29:45.455Z,5.26
2019-03-01T07:30:49.624Z,5.23
2019-03-01T07:31:53.817Z,5.21
2019-03-01T07:32:57.924Z,5.20
2019-03-01T07:34:02.209Z,5.20
2019-03-01T07:35:06.410Z,5.18
2019-03-01T07:36:10.597Z,5.17
2019-03-01T07:37:14.792Z,5.17
2019-03-01T07:38:19.020Z,5.19
2019-03-01T07:39:23.161Z,5.20
2019-03-01T07:40:27.303Z,5.21
2019-03-01T07:41:31.536Z,5.20
2019-03-01T07:42:35.759Z,5.20
2019-03-01T07:43:39.976Z,5.20
2019-03-01T07:44:44.164Z,5.21
2019-03-01T07:45:48.359Z,5.20
2019-03-01T07:46:54.141Z,5.21
2019-03-01T07:47:56.784Z,5.23
2019-03-01T07:49:00.978Z,5.24
2019-03-01T07:50:05.210Z,5.26
2019-03-01T07:51:09.412Z,5.28
2019-03-01T07:52:13.570Z,5.27
2019-03-01T07:53:17.846Z,5.29
2019-03-01T07:54:22.484Z,5.31
2019-03-01T07:55:28.308Z,5.34
2019-03-01T07:56:30.449Z,5.35
2019-03-01T07:57:34.689Z,5.32
2019-03-01T07:58:38.901Z,5.30
2019-03-01T07:59:43.163Z,5.29
2019-03-01T08:00:53.157Z,5.26
2019-03-01T08:01:51.618Z,5.25
2019-03-01T08:02:55.847Z,5.25
2019-03-01T08:04:00.047Z,5.25
2019-03-01T08:05:05.157Z,5.25
2019-03-01T08:06:13.125Z,5.24
2019-03-01T08:07:12.682Z,5.24
2019-03-01T08:08:16.788Z,5.24
2019-03-01T08:09:21.055Z,5.25
2019-03-01T08:10:25.240Z,5.26
2019-03-01T08:11:31.757Z,5.27
2019-03-01T08:12:33.574Z,5.26
2019-03-01T08:13:37.835Z,5.27
2019-03-01T08:14:42.077Z,5.28
2019-03-01T08:15:46.310Z,5.28
2019-03-01T08:16:52.685Z,5.30
2019-03-01T08:17:54.757Z,5.34
2019-03-01T08:18:58.850Z,5.36
2019-03-01T08:20:03.124Z,5.37
2019-03-01T08:21:10.130Z,5.40
2019-03-01T08:22:11.434Z,5.43
2019-03-01T08:23:15.610Z,5.47
2019-03-01T08:24:19.858Z,5.50
2019-03-01T08:25:24.721Z,5.50
2019-03-01T08:26:30.738Z,5.48
2019-03-01T08:27:32.503Z,5.47
2019-03-01T08:28:36.624Z,5.47
2019-03-01T08:29:41.000Z,5.47
2019-03-01T08:30:45.795Z,5.50
2019-03-01T08:31:49.188Z,5.53
2019-03-01T08:32:53.503Z,5.55
2019-03-01T08:33:57.713Z,5.54
2019-03-01T08:35:01.911Z,5.56
2019-03-01T08:36:07.040Z,5.56
2019-03-01T08:37:10.411Z,5.55
2019-03-01T08:38:14.632Z,5.55
2019-03-01T08:39:18.766Z,5.54
2019-03-01T08:40:22.932Z,5.53
2019-03-01T08:41:27.197Z,5.51
2019-03-01T08:42:32.634Z,5.49
2019-03-01T08:43:35.910Z,5.47
2019-03-01T08:44:39.872Z,5.46
2019-03-01T08:45:44.112Z,5.45
2019-03-01T08:46:48.301Z,5.42
2019-03-01T08:47:55.501Z,5.42
2019-03-01T08:48:56.730Z,5.41
2019-03-01T08:50:00.811Z,5.41
2019-03-01T08:51:05.061Z,5.40
2019-03-01T08:52:09.262Z,5.40
2019-03-01T08:53:15.251Z,5.40
2019-03-01T08:54:17.738Z,5.39
2019-03-01T08:55:21.970Z,5.37
2019-03-01T08:56:26.533Z,5.35
2019-03-01T08:57:30.286Z,5.35
2019-03-01T08:58:37.703Z,5.37
2019-03-01T08:59:38.794Z,5.38
2019-03-01T09:00:43.004Z,5.39
2019-03-01T09:01:47.186Z,5.41
2019-03-01T09:02:51.345Z,5.42
2019-03-01T09:03:55.627Z,5.43
2019-03-01T09:04:59.821Z,5.42
2019-03-01T09:06:04.045Z,5.42
2019-03-01T09:07:08.177Z,5.46
2019-03-01T09:08:12.438Z,5.49
2019-03-01T09:09:17.603Z,5.51
2019-03-01T09:10:20.762Z,5.51
2019-03-01T09:11:25.112Z,5.51
2019-03-01T09:12:29.267Z,5.51
2019-03-01T09:13:33.500Z,5.51
2019-03-01T09:14:37.672Z,5.51
2019-03-01T09:15:41.890Z,5.54
2019-03-01T09:16:46.111Z,5.56
2019-03-01T09:17:50.347Z,5.60
2019-03-01T09:18:54.476Z,5.62
2019-03-01T09:20:00.206Z,5.67
2019-03-01T09:21:05.908Z,5.70
2019-03-01T09:22:07.235Z,5.69
2019-03-01T09:23:23.593Z,5.68
2019-03-01T09:24:15.738Z,5.65
2019-03-01T09:25:19.965Z,5.64
2019-03-01T09:26:24.152Z,5.63
2019-03-01T09:27:30.304Z,5.59
2019-03-01T09:28:32.805Z,5.57
2019-03-01T09:29:41.581Z,5.57
2019-03-01T09:30:43.544Z,5.57
2019-03-01T09:31:45.218Z,5.57
2019-03-01T09:32:49.410Z,5.57
2019-03-01T09:33:56.373Z,5.57
2019-03-01T09:34:57.709Z,5.54
2019-03-01T09:36:02.018Z,5.52
2019-03-01T09:37:06.254Z,5.50
2019-03-01T09:38:11.423Z,5.48
2019-03-01T09:39:18.000Z,5.46
2019-03-01T09:40:18.920Z,5.45
2019-03-01T09:41:23.134Z,5.44
2019-03-01T09:42:27.347Z,5.42
2019-03-01T09:43:31.462Z,5.41
2019-03-01T09:44:38.431Z,5.41
2019-03-01T09:45:39.974Z,5.40
2019-03-01T09:46:44.102Z,5.40
2019-03-01T09:47:48.382Z,5.37
2019-03-01T09:48:52.503Z,5.36
2019-03-01T09:49:59.814Z,5.36
2019-03-01T09:51:00.847Z,5.37
2019-03-01T09:52:04.983Z,5.37
2019-03-01T09:53:09.258Z,5.40
2019-03-01T09:54:13.572Z,5.41
2019-03-01T09:55:17.663Z,5.43
2019-03-01T09:56:24.153Z,5.45
2019-03-01T09:57:26.096Z,5.47
2019-03-01T09:58:30.334Z,5.51
2019-03-01T09:59:34.452Z,5.55
2019-03-01T10:00:38.728Z,5.58
2019-03-01T10:01:42.988Z,5.61
2019-03-01T10:02:47.153Z,5.61
2019-03-01T10:03:51.465Z,5.58
2019-03-01T10:04:55.717Z,5.53
2019-03-01T10:05:59.855Z,5.51
2019-03-01T10:07:04.070Z,5.50
2019-03-01T10:08:11.195Z,5.51
2019-03-01T10:09:14.497Z,5.52
2019-03-01T10:10:18.783Z,5.54
2019-03-01T10:11:22.921Z,5.56
2019-03-01T10:12:27.236Z,5.59
2019-03-01T10:13:31.381Z,5.59
2019-03-01T10:14:35.475Z,5.59
2019-03-01T10:15:39.780Z,5.59
2019-03-01T10:16:43.884Z,5.58
2019-03-01T10:17:48.131Z,5.56
2019-03-01T10:18:52.304Z,5.54
2019-03-01T10:19:56.541Z,5.51
2019-03-01T10:21:00.780Z,5.51
2019-03-01T10:22:04.989Z,5.51
2019-03-01T10:23:09.216Z,5.51
2019-03-01T10:24:13.340Z,5.50
2019-03-01T10:25:17.579Z,5.48
2019-03-01T10:26:21.688Z,5.45
2019-03-01T10:27:25.930Z,5.42
2019-03-01T10:28:30.185Z,5.40
2019-03-01T10:29:34.406Z,5.42
2019-03-01T10:30:38.658Z,5.44
2019-03-01T10:31:42.949Z,5.46
2019-03-01T10:32:47.120Z,5.50
2019-03-01T10:33:51.250Z,5.54
2019-03-01T10:34:55.545Z,5.56
2019-03-01T10:35:59.788Z,5.55
2019-03-01T10:37:03.958Z,5.53
2019-03-01T10:38:08.149Z,5.52
2019-03-01T10:39:12.381Z,5.47
2019-03-01T10:40:16.411Z,5.44
2019-03-01T10:41:20.858Z,5.43
2019-03-01T10:42:24.983Z,5.43
2019-03-01T10:43:29.303Z,5.42
2019-03-01T10:44:33.504Z,5.39
2019-03-01T10:45:37.686Z,5.38
2019-03-01T10:46:41.918Z,5.38
2019-03-01T10:47:46.160Z,5.40
2019-03-01T10:48:50.361Z,5.41
2019-03-01T10:49:54.583Z,5.44
2019-03-01T10:50:58.814Z,5.45
2019-03-01T10:52:03.032Z,5.43
2019-03-01T10:53:07.260Z,5.42
2019-03-01T10:54:11.432Z,5.43
2019-03-01T10:55:15.633Z,5.45
2019-03-01T10:56:19.852Z,5.49
2019-03-01T10:57:23.996Z,5.53
2019-03-01T10:58:28.242Z,5.56
2019-03-01T10:59:32.425Z,5.57
2019-03-01T11:00:36.651Z,5.57
2019-03-01T11:01:40.868Z,5.57
2019-03-01T11:02:45.074Z,5.56
2019-03-01T11:03:49.273Z,5.55
2019-03-01T11:04:53.480Z,5.56
2019-03-01T11:05:57.697Z,5.57
2019-03-01T11:07:01.924Z,5.58
2019-03-01T11:08:06.050Z,5.59
2019-03-01T11:09:10.324Z,5.61
2019-03-01T11:10:14.563Z,5.60
2019-03-01T11:11:18.763Z,5.59
2019-03-01T11:12:23.002Z,5.61
2019-03-01T11:13:27.193Z,5.64
2019-03-01T11:14:31.444Z,5.66
2019-03-01T11:15:35.549Z,5.68
2019-03-01T11:16:39.825Z,5.69
2019-03-01T11:17:44.041Z,5.72
2019-03-01T11:18:48.238Z,5.75
2019-03-01T11:19:52.451Z,5.77
2019-03-01T11:20:56.684Z,5.79
2019-03-01T11:22:00.897Z,5.78
2019-03-01T11:23:05.139Z,5.76
2019-03-01T11:24:09.352Z,5.75
2019-03-01T11:25:13.584Z,5.71
2019-03-01T11:26:17.774Z,5.70
2019-03-01T11:27:22.025Z,5.70
2019-03-01T11:28:26.191Z,5.71
2019-03-01T11:29:30.380Z,5.72
2019-03-01T11:30:34.639Z,5.73
2019-03-01T11:31:38.956Z,5.74
2019-03-01T11:32:43.064Z,5.74
2019-03-01T11:33:50.370Z,5.73
2019-03-01T11:34:53.635Z,5.75
2019-03-01T11:35:57.875Z,5.77
2019-03-01T11:37:02.137Z,5.78
2019-03-01T11:38:06.245Z,5.80
2019-03-01T11:39:10.369Z,5.81
2019-03-01T11:40:14.676Z,5.82
2019-03-01T11:41:18.898Z,5.84
2019-03-01T11:42:23.057Z,5.86
2019-03-01T11:43:27.338Z,5.87
2019-03-01T11:44:31.533Z,5.85
2019-03-01T11:45:35.810Z,5.86
2019-03-01T11:46:40.010Z,5.88
2019-03-01T11:47:44.214Z,5.90
2019-03-01T11:48:48.465Z,5.93
2019-03-01T11:49:52.733Z,5.95
2019-03-01T11:50:56.938Z,5.98
2019-03-01T11:52:01.269Z,6.00
2019-03-01T11:53:05.485Z,6.03
2019-03-01T11:54:09.714Z,6.06
2019-03-01T11:55:13.952Z,6.06
2019-03-01T11:56:18.262Z,6.07
2019-03-01T11:57:22.529Z,6.11
2019-03-01T11:58:26.736Z,6.14
2019-03-01T11:59:30.950Z,6.17
2019-03-01T12:00:35.207Z,6.18
2019-03-01T12:01:39.465Z,6.18
2019-03-01T12:02:43.678Z,6.20
2019-03-01T12:03:47.894Z,6.20
2019-03-01T12:04:52.012Z,6.20
2019-03-01T12:05:56.309Z,6.19
2019-03-01T12:07:00.562Z,6.19
2019-03-01T12:08:05.081Z,6.19
2019-03-01T12:09:09.189Z,6.17
2019-03-01T12:10:13.422Z,6.18
2019-03-01T12:11:17.616Z,6.20
2019-03-01T12:12:21.817Z,6.21
2019-03-01T12:13:26.085Z,6.22
2019-03-01T12:14:30.338Z,6.20
2019-03-01T12:15:34.532Z,6.20
2019-03-01T12:16:38.931Z,6.19
2019-03-01T12:17:43.070Z,6.19
2019-03-01T12:18:47.277Z,6.19
2019-03-01T12:19:51.644Z,6.22
2019-03-01T12:20:55.840Z,6.23
2019-03-01T12:21:59.953Z,6.25
2019-03-01T12:23:04.372Z,6.22
2019-03-01T12:24:08.461Z,6.19
2019-03-01T12:25:12.861Z,6.16
2019-03-01T12:26:16.810Z,6.13
2019-03-01T12:27:21.226Z,6.11
2019-03-01T12:28:25.473Z,6.11
2019-03-01T12:29:29.684Z,6.10
2019-03-01T12:30:33.908Z,6.09
2019-03-01T12:31:38.201Z,6.08
2019-03-01T12:32:42.379Z,6.09
2019-03-01T12:33:46.620Z,6.09
2019-03-01T12:34:50.884Z,6.07
2019-03-01T12:35:54.993Z,6.06
2019-03-01T12:36:59.270Z,6.05
2019-03-01T12:38:03.538Z,6.04
2019-03-01T12:39:09.838Z,6.03
2019-03-01T12:40:12.059Z,6.04
2019-03-01T12:41:16.299Z,6.05
2019-03-01T12:42:20.492Z,6.07
2019-03-01T12:43:24.737Z,6.06
2019-03-01T12:44:28.953Z,6.06
2019-03-01T12:45:33.173Z,6.07
2019-03-01T12:46:37.410Z,6.08
2019-03-01T12:47:41.580Z,6.08
2019-03-01T12:48:45.897Z,6.08
2019-03-01T12:49:50.201Z,6.07
2019-03-01T12:50:54.258Z,6.06
2019-03-01T12:51:58.630Z,6.07
2019-03-01T12:53:02.893Z,6.10
2019-03-01T12:54:07.091Z,6.13
2019-03-01T12:55:12.345Z,6.15
2019-03-01T12:56:15.528Z,6.16
2019-03-01T12:57:19.718Z,6.16
2019-03-01T12:58:23.960Z,6.16
2019-03-01T12:59:28.107Z,6.16
2019-03-01T13:00:32.435Z,6.16
2019-03-01T13:01:36.824Z,6.19
2019-03-01T13:02:41.125Z,6.19
2019-03-01T13:03:45.309Z,6.19
2019-03-01T13:04:49.857Z,6.19
2019-03-01T13:05:53.803Z,6.17
2019-03-01T13:06:58.013Z,6.13
2019-03-01T13:08:02.234Z,6.10
2019-03-01T13:09:06.554Z,6.07
2019-03-01T13:10:10.838Z,6.06
2019-03-01T13:11:16.148Z,6.06
2019-03-01T13:12:22.421Z,6.05
2019-03-01T13:13:23.530Z,6.05
2019-03-01T13:14:27.884Z,6.05
2019-03-01T13:15:32.016Z,6.04
2019-03-01T13:16:36.228Z,6.04
2019-03-01T13:17:40.483Z,6.04
2019-03-01T13:18:47.756Z,6.04
2019-03-01T13:19:48.987Z,6.05
2019-03-01T13:20:53.124Z,6.06
2019-03-01T13:21:57.389Z,6.08
2019-03-01T13:23:04.853Z,6.10
2019-03-01T13:24:05.856Z,6.13
2019-03-01T13:25:10.197Z,6.14
2019-03-01T13:26:14.285Z,6.14
2019-03-01T13:27:18.559Z,6.16
2019-03-01T13:28:22.799Z,6.17
2019-03-01T13:29:27.079Z,6.17
2019-03-01T13:30:32.559Z,6.19
2019-03-01T13:31:35.633Z,6.21
2019-03-01T13:32:39.772Z,6.22
2019-03-01T13:33:44.848Z,6.23
2019-03-01T13:34:49.532Z,6.23
2019-03-01T13:35:52.971Z,6.23
2019-03-01T13:36:57.205Z,6.23
2019-03-01T13:38:03.647Z,6.24
2019-03-01T13:39:07.710Z,6.24
2019-03-01T13:40:09.940Z,6.23
2019-03-01T13:41:14.164Z,6.22
2019-03-01T13:42:18.400Z,6.23
2019-03-01T13:43:23.757Z,6.25
2019-03-01T13:44:26.881Z,6.26
2019-03-01T13:45:31.095Z,6.26
2019-03-01T13:46:35.245Z,6.26
2019-03-01T13:47:40.651Z,6.26
2019-03-01T13:48:43.745Z,6.25
2019-03-01T13:49:47.984Z,6.26
2019-03-01T13:50:52.206Z,6.26
2019-03-01T13:51:56.409Z,6.29
2019-03-01T13:53:00.570Z,6.30
2019-03-01T13:54:05.748Z,6.30
2019-03-01T13:55:09.191Z,6.31
2019-03-01T13:56:13.379Z,6.33
2019-03-01T13:57:17.504Z,6.35
2019-03-01T13:58:26.827Z,6.35
2019-03-01T13:59:25.925Z,6.34
2019-03-01T14:00:30.145Z,6.34
2019-03-01T14:01:34.699Z,6.34
2019-03-01T14:02:38.920Z,6.34
2019-03-01T14:03:43.026Z,6.34
2019-03-01T14:04:47.219Z,6.33
2019-03-01T14:05:54.863Z,6.33
2019-03-01T14:06:55.780Z,6.31
2019-03-01T14:08:08.574Z,6.28
2019-03-01T14:09:04.368Z,6.27
2019-03-01T14:10:08.525Z,6.27
2019-03-01T14:11:15.162Z,6.28
2019-03-01T14:12:16.906Z,6.29
2019-03-01T14:13:21.237Z,6.28
2019-03-01T14:14:27.027Z,6.29